Time;durP1;ratioP1;P1;durP2;ratioP2;P2;SDS_P1;SDS_P2;PMS_P1;PMS_P2;Temp;Humidity;BMP_temperature;BMP_pressure;BME280_temperature;BME280_humidity;BME280_pressure;Samples;Min_cycle;Max_cycle;Signal;HPM_P1;HPM_P2
2021/12/08 00:00:27;;;;;;;12.15;6.05;;;3.00;99.90;;;;;;4988684;28;20125;-56
2021/12/08 00:02:54;;;;;;;;;;;3.00;99.90;;;;;;5007437;28;20053;-55
2021/12/08 00:05:22;;;;;;;10.75;5.78;;;3.00;99.90;;;;;;5008843;28;19975;-55
2021/12/08 00:07:49;;;;;;;12.20;6.13;;;3.10;99.90;;;;;;4975333;28;20473;-55
2021/12/08 00:13:07;;;;;;;12.25;6.55;;;3.00;99.90;;;;;;4970475;28;1116763;-55
2021/12/08 00:15:39;;;;;;;9.57;5.22;;;3.00;99.90;;;;;;5009823;28;20539;-54
2021/12/08 00:18:08;;;;;;;12.52;6.00;;;3.10;99.90;;;;;;4991828;28;20141;-54
2021/12/08 00:20:35;;;;;;;11.77;5.55;;;3.00;99.90;;;;;;4950479;28;20403;-56
2021/12/08 00:23:04;;;;;;;8.50;5.10;;;3.00;99.90;;;;;;4997613;28;20042;-56
2021/12/08 00:25:30;;;;;;;12.70;5.43;;;3.00;99.90;;;;;;4972421;28;20092;-56
2021/12/08 00:27:57;;;;;;;11.40;5.45;;;3.10;99.90;;;;;;5000223;28;20103;-56
2021/12/08 00:30:24;;;;;;;7.28;4.65;;;3.10;99.90;;;;;;5001774;28;20101;-55
2021/12/08 00:32:51;;;;;;;10.65;5.75;;;3.10;99.90;;;;;;4995735;28;20049;-55
2021/12/08 00:35:18;;;;;;;9.98;6.75;;;3.10;99.90;;;;;;4993840;28;20046;-56
2021/12/08 00:37:44;;;;;;;10.82;5.60;;;3.10;99.90;;;;;;4977813;28;20389;-56
2021/12/08 00:40:15;;;;;;;8.35;4.78;;;3.10;99.90;;;;;;4984807;28;20121;-55
2021/12/08 00:42:41;;;;;;;11.07;5.93;;;3.10;99.90;;;;;;4994127;28;20123;-56
2021/12/08 00:45:10;;;;;;;11.30;5.10;;;3.20;99.90;;;;;;4970938;28;20105;-56
2021/12/08 00:47:36;;;;;;;16.10;6.10;;;3.20;99.90;;;;;;4989799;28;20060;-56
2021/12/08 00:50:06;;;;;;;10.63;6.15;;;3.10;99.90;;;;;;5010567;28;20482;-56
2021/12/08 00:52:32;;;;;;;10.95;6.15;;;3.20;99.90;;;;;;5009662;28;20049;-55
2021/12/08 00:55:00;;;;;;;15.07;6.78;;;3.20;99.90;;;;;;4960092;28;20088;-55
2021/12/08 00:57:27;;;;;;;10.00;5.55;;;3.20;99.90;;;;;;5011991;28;20061;-62
2021/12/08 00:59:53;;;;;;;13.77;5.85;;;3.20;99.90;;;;;;4993144;28;20135;-62
2021/12/08 01:02:20;;;;;;;10.18;4.95;;;3.30;99.90;;;;;;4991221;28;20053;-62
2021/12/08 01:04:46;;;;;;;12.18;5.40;;;3.30;99.90;;;;;;4976779;28;20488;-62
2021/12/08 01:07:12;;;;;;;10.65;5.82;;;3.30;99.90;;;;;;4983426;28;20046;-61
2021/12/08 01:09:39;;;;;;;13.00;5.53;;;3.30;99.90;;;;;;5011372;28;20054;-61
2021/12/08 01:12:06;;;;;;;13.07;6.35;;;3.30;99.90;;;;;;4977551;28;20046;-61
2021/12/08 01:14:34;;;;;;;11.55;6.78;;;3.40;99.90;;;;;;4994560;28;20062;-62
2021/12/08 01:17:01;;;;;;;11.05;5.70;;;3.40;99.90;;;;;;4994176;28;20057;-62
2021/12/08 01:19:27;;;;;;;11.30;6.57;;;3.40;99.90;;;;;;4977684;28;20081;-62
2021/12/08 01:21:54;;;;;;;8.63;6.05;;;3.50;99.90;;;;;;4996295;28;20062;-62
2021/12/08 01:24:21;;;;;;;10.35;6.30;;;3.50;99.90;;;;;;4977208;28;20128;-62
2021/12/08 01:26:47;;;;;;;11.20;6.38;;;3.50;99.90;;;;;;5010634;28;20429;-62
2021/12/08 01:29:14;;;;;;;11.20;6.63;;;3.50;99.90;;;;;;5008741;28;20068;-62
2021/12/08 01:31:42;;;;;;;13.45;6.55;;;3.50;99.90;;;;;;4959301;28;20049;-61
2021/12/08 01:34:10;;;;;;;8.88;5.82;;;3.60;99.90;;;;;;4993958;28;20057;-62
2021/12/08 01:36:37;;;;;;;11.88;6.70;;;3.60;99.90;;;;;;4994141;28;20041;-62
2021/12/08 01:39:05;;;;;;;10.65;5.60;;;3.60;99.90;;;;;;4979742;28;20073;-61
2021/12/08 01:41:31;;;;;;;14.30;6.35;;;3.70;99.90;;;;;;4991936;28;20041;-62
2021/12/08 01:46:43;;;;;;;8.07;4.82;;;3.70;99.90;;;;;;5010997;28;20489;-56
2021/12/08 01:49:09;;;;;;;11.50;5.38;;;3.70;99.90;;;;;;4977333;28;20136;-56
2021/12/08 01:51:36;;;;;;;8.43;5.50;;;3.70;99.90;;;;;;5009662;28;20050;-54
2021/12/08 01:54:04;;;;;;;9.43;5.95;;;3.70;99.90;;;;;;5005793;28;20088;-56
2021/12/08 01:56:33;;;;;;;11.43;6.28;;;3.70;99.90;;;;;;4992690;28;20049;-62
2021/12/08 01:59:03;;;;;;;9.73;6.25;;;3.70;99.90;;;;;;4992672;28;20077;-56
2021/12/08 02:01:33;;;;;;;9.20;6.47;;;3.70;99.90;;;;;;5011266;28;20041;-61
2021/12/08 02:04:04;;;;;;;9.38;5.93;;;3.70;99.90;;;;;;4976344;28;20038;-56
2021/12/08 02:06:33;;;;;;;10.27;5.93;;;3.70;99.90;;;;;;4990581;28;20038;-61
2021/12/08 02:08:59;;;;;;;11.82;5.70;;;3.70;99.90;;;;;;4991126;28;20133;-56
2021/12/08 02:11:25;;;;;;;8.90;5.90;;;3.70;99.90;;;;;;4992234;28;20042;-56
2021/12/08 02:13:58;;;;;;;10.85;7.05;;;3.70;99.90;;;;;;4991474;28;20413;-62
2021/12/08 02:16:24;;;;;;;11.32;6.38;;;3.70;99.90;;;;;;5009519;28;20069;-56
2021/12/08 02:18:52;;;;;;;10.90;6.55;;;3.70;99.90;;;;;;5002564;28;20157;-61
2021/12/08 02:21:35;;;;;;;11.32;6.50;;;3.70;99.90;;;;;;5008987;28;20046;-55
2021/12/08 02:24:10;;;;;;;11.80;7.25;;;3.70;99.90;;;;;;4981319;28;20053;-61
2021/12/08 02:26:38;;;;;;;13.60;6.82;;;3.70;99.90;;;;;;5011977;28;20473;-57
2021/12/08 02:29:12;;;;;;;11.65;7.53;;;3.70;99.90;;;;;;4989457;28;20112;-61
2021/12/08 02:48:19;;;;;;;11.65;6.55;;;3.70;99.90;;;;;;4973885;28;20054;-61
2021/12/08 02:50:45;;;;;;;13.63;6.22;;;3.60;99.90;;;;;;5006191;28;20524;-61
2021/12/08 02:53:14;;;;;;;11.07;7.38;;;3.60;99.90;;;;;;4976202;28;20049;-61
2021/12/08 02:55:42;;;;;;;9.60;6.32;;;3.60;99.90;;;;;;4947595;28;20121;-61
2021/12/08 02:58:08;;;;;;;9.57;6.57;;;3.60;99.90;;;;;;4992532;28;20421;-61
2021/12/08 03:00:46;;;;;;;9.52;5.78;;;3.60;99.90;;;;;;4973184;28;20588;-61
2021/12/08 03:03:13;;;;;;;13.23;7.63;;;3.60;99.90;;;;;;4981718;28;20042;-61
2021/12/08 03:05:40;;;;;;;14.32;7.50;;;3.70;99.90;;;;;;5002140;28;20125;-61
2021/12/08 03:08:07;;;;;;;12.68;8.10;;;3.70;99.90;;;;;;5010757;28;20559;-61
2021/12/08 03:10:40;;;;;;;13.50;8.30;;;3.80;99.90;;;;;;5009414;28;20500;-61
2021/12/08 03:13:06;;;;;;;14.98;8.35;;;3.70;99.90;;;;;;5010319;28;20123;-61
2021/12/08 03:15:33;;;;;;;13.73;8.13;;;3.80;99.90;;;;;;4976291;28;20042;-62
2021/12/08 03:17:59;;;;;;;13.23;8.48;;;3.80;99.90;;;;;;4991340;28;20061;-61
2021/12/08 03:20:43;;;;;;;15.63;8.57;;;3.80;99.90;;;;;;4990790;28;20050;-55
2021/12/08 03:23:20;;;;;;;12.45;8.55;;;3.90;99.90;;;;;;5009487;28;20520;-61
2021/12/08 03:25:55;;;;;;;14.38;9.55;;;3.90;99.90;;;;;;5009627;28;20060;-62
2021/12/08 03:28:27;;;;;;;11.27;8.55;;;3.90;99.90;;;;;;4991080;28;20092;-61
2021/12/08 03:33:23;;;;;;;15.52;10.40;;;4.00;99.90;;;;;;4989925;28;20053;-61
2021/12/08 03:35:50;;;;;;;15.35;10.27;;;4.10;99.90;;;;;;4989252;28;20069;-62
2021/12/08 03:38:18;;;;;;;16.20;10.68;;;4.10;99.90;;;;;;4992965;28;20049;-56
2021/12/08 03:40:46;;;;;;;14.38;9.93;;;4.20;99.90;;;;;;4974888;28;20045;-56
2021/12/08 03:43:13;;;;;;;16.60;11.05;;;4.20;99.90;;;;;;5008487;28;20041;-56
2021/12/08 03:45:45;;;;;;;16.20;11.35;;;4.20;99.90;;;;;;4958256;28;20384;-55
2021/12/08 03:48:21;;;;;;;12.00;10.63;;;4.20;99.90;;;;;;5008573;28;20793;-56
2021/12/08 03:50:47;;;;;;;16.33;12.02;;;4.30;99.90;;;;;;5008584;28;20045;-56
2021/12/08 03:53:16;;;;;;;12.50;10.75;;;4.30;99.90;;;;;;4974853;28;20059;-55
2021/12/08 03:55:47;;;;;;;16.27;12.35;;;4.30;99.90;;;;;;4988251;28;20058;-57
2021/12/08 03:58:13;;;;;;;18.50;13.10;;;4.40;99.90;;;;;;4978814;28;20057;-56
2021/12/08 04:00:42;;;;;;;13.43;12.13;;;4.40;99.90;;;;;;5007937;28;20069;-56
2021/12/08 04:03:08;;;;;;;16.30;12.25;;;4.40;99.90;;;;;;4972861;28;20045;-56
2021/12/08 04:08:26;;;;;;;15.95;13.15;;;4.50;99.90;;;;;;5000092;28;20184;-55
2021/12/08 04:10:53;;;;;;;18.05;13.23;;;4.60;99.90;;;;;;5007810;28;20637;-56
2021/12/08 04:13:25;;;;;;;14.75;12.38;;;4.60;99.90;;;;;;5009653;28;20069;-56
2021/12/08 04:15:52;;;;;;;16.58;13.23;;;4.60;99.90;;;;;;4970950;28;20047;-56
2021/12/08 04:18:18;;;;;;;18.65;13.20;;;4.70;99.90;;;;;;4962845;28;20049;-56
2021/12/08 04:20:51;;;;;;;17.98;13.57;;;4.70;99.90;;;;;;4957916;28;20064;-61
2021/12/08 04:23:19;;;;;;;19.73;13.40;;;4.70;99.90;;;;;;5008545;28;20052;-62
2021/12/08 04:25:50;;;;;;;17.25;13.13;;;4.70;99.90;;;;;;5008348;28;20050;-62
2021/12/08 04:28:32;;;;;;;17.33;13.65;;;4.70;99.90;;;;;;5003172;28;20069;-62
2021/12/08 04:31:04;;;;;;;16.55;13.32;;;4.80;99.90;;;;;;5002368;28;20129;-62
2021/12/08 04:33:33;;;;;;;17.10;13.52;;;4.80;99.90;;;;;;4997350;28;20049;-62
2021/12/08 04:36:00;;;;;;;18.88;13.60;;;4.80;99.90;;;;;;5008601;28;20053;-61
2021/12/08 04:38:34;;;;;;;17.02;13.55;;;4.80;99.90;;;;;;4989311;28;20041;-62
2021/12/08 04:41:06;;;;;;;13.65;11.90;;;4.90;99.90;;;;;;5008507;28;20049;-62
2021/12/08 04:43:59;;;;;;;16.08;14.38;;;4.90;99.90;;;;;;4973951;28;20050;-62
2021/12/08 04:52:03;;;;;;;17.75;13.20;;;4.90;99.90;;;;;;5009131;28;20057;-62
2021/12/08 05:07:54;;;;;;;14.55;12.20;;;4.90;99.90;;;;;;4974700;28;20050;-63
2021/12/08 05:10:30;;;;;;;16.77;12.15;;;4.90;99.90;;;;;;4989288;28;20132;-62
2021/12/08 05:12:58;;;;;;;15.40;12.63;;;4.90;99.90;;;;;;4990732;28;20042;-62
2021/12/08 05:15:32;;;;;;;16.10;11.95;;;5.00;99.90;;;;;;4990964;28;20509;-62
2021/12/08 05:18:07;;;;;;;17.98;12.55;;;5.00;99.90;;;;;;4991281;28;20107;-62
2021/12/08 05:20:37;;;;;;;14.98;11.98;;;5.00;99.90;;;;;;5011117;28;20050;-62
2021/12/08 05:23:13;;;;;;;15.60;11.75;;;5.00;99.90;;;;;;4993875;28;20053;-62
2021/12/08 05:25:40;;;;;;;16.50;11.00;;;4.90;99.90;;;;;;5010350;28;20050;-62
2021/12/08 05:28:11;;;;;;;12.57;10.13;;;5.00;99.90;;;;;;4978286;28;20060;-62
2021/12/08 05:30:43;;;;;;;15.65;11.18;;;5.00;99.90;;;;;;5012677;28;20048;-62
2021/12/08 05:33:09;;;;;;;;;;;5.00;99.90;;;;;;4976170;28;20054;-62
2021/12/08 05:35:38;;;;;;;15.00;10.57;;;5.00;99.90;;;;;;5011040;28;19963;-62
2021/12/08 05:38:05;;;;;;;14.77;10.70;;;5.10;99.90;;;;;;5011910;28;20092;-62
2021/12/08 05:40:43;;;;;;;13.13;10.65;;;5.10;99.90;;;;;;5011516;28;20121;-62
2021/12/08 05:43:10;;;;;;;15.45;10.27;;;5.10;99.90;;;;;;4975993;28;20121;-61
2021/12/08 05:45:39;;;;;;;16.92;11.27;;;5.10;99.90;;;;;;4994373;28;20136;-61
2021/12/08 05:48:07;;;;;;;14.38;9.65;;;5.10;99.90;;;;;;4988747;28;20050;-55
2021/12/08 05:50:36;;;;;;;13.68;9.63;;;5.10;99.90;;;;;;4983752;28;20280;-54
2021/12/08 05:53:03;;;;;;;14.23;9.95;;;5.10;99.90;;;;;;4992607;28;20472;-54
2021/12/08 05:55:30;;;;;;;11.32;10.02;;;5.00;99.90;;;;;;4992287;28;20130;-55
2021/12/08 05:57:58;;;;;;;13.85;10.05;;;5.00;99.90;;;;;;5010544;28;20703;-55
2021/12/08 06:00:43;;;;;;;13.77;10.65;;;5.00;99.90;;;;;;4995847;28;20053;-55
2021/12/08 06:03:11;;;;;;;17.42;10.55;;;4.80;99.90;;;;;;4992504;28;20046;-55
2021/12/08 06:05:38;;;;;;;18.83;10.73;;;4.80;99.90;;;;;;4983551;28;20374;-61
2021/12/08 06:08:05;;;;;;;14.13;9.48;;;4.80;99.90;;;;;;5010873;28;20140;-55
2021/12/08 06:10:35;;;;;;;14.30;9.57;;;4.80;99.90;;;;;;4978607;28;20129;-60
2021/12/08 06:13:03;;;;;;;13.90;9.63;;;4.70;99.90;;;;;;4973998;28;20041;-55
2021/12/08 06:15:30;;;;;;;13.32;9.13;;;4.70;99.90;;;;;;4985145;28;20119;-61
2021/12/08 06:17:56;;;;;;;12.05;8.88;;;4.80;99.90;;;;;;4963607;28;20050;-63
2021/12/08 06:20:23;;;;;;;12.93;8.90;;;4.80;99.90;;;;;;4979410;28;20096;-63
2021/12/08 06:22:51;;;;;;;12.52;8.63;;;4.70;99.90;;;;;;4994347;28;20046;-62
2021/12/08 06:25:18;;;;;;;14.50;9.18;;;4.70;99.90;;;;;;5008848;28;20049;-63
2021/12/08 06:27:45;;;;;;;12.82;9.43;;;4.60;99.90;;;;;;4980305;28;20782;-61
2021/12/08 06:30:15;;;;;;;13.52;9.52;;;4.60;99.90;;;;;;5008889;28;20081;-59
2021/12/08 06:32:43;;;;;;;12.82;8.80;;;4.70;99.90;;;;;;4992034;28;20053;-61
2021/12/08 06:35:14;;;;;;;12.55;8.65;;;4.70;99.90;;;;;;4993672;28;20124;-59
2021/12/08 06:37:43;;;;;;;13.25;8.23;;;4.70;99.90;;;;;;5008512;28;20085;-59
2021/12/08 06:40:15;;;;;;;12.20;8.25;;;4.60;99.90;;;;;;5010726;28;20053;-59
2021/12/08 06:42:45;;;;;;;13.18;8.45;;;4.60;99.90;;;;;;4968846;28;20134;-59
2021/12/08 06:45:17;;;;;;;13.48;7.90;;;4.60;99.90;;;;;;4991939;28;20537;-59
2021/12/08 06:47:44;;;;;;;16.13;8.60;;;4.60;99.90;;;;;;5006494;28;20034;-56
2021/12/08 06:50:36;;;;;;;13.27;7.32;;;4.60;99.90;;;;;;4990025;28;20049;-57
2021/12/08 06:53:03;;;;;;;12.38;8.38;;;4.60;99.90;;;;;;5007249;28;20058;-57
2021/12/08 06:55:48;;;;;;;12.75;6.53;;;4.60;99.90;;;;;;4955483;28;20060;-57
2021/12/08 06:58:21;;;;;;;11.48;6.90;;;4.60;99.90;;;;;;4993106;28;20408;-57
2021/12/08 07:03:42;;;;;;;13.05;6.30;;;4.60;99.90;;;;;;5010783;28;20116;-57
2021/12/08 07:09:09;;;;;;;10.18;5.68;;;4.70;99.90;;;;;;4969319;28;20084;-59
2021/12/08 07:11:35;;;;;;;12.57;5.28;;;4.70;99.90;;;;;;4960920;28;20057;-59
2021/12/08 07:14:02;;;;;;;11.00;5.88;;;4.70;99.90;;;;;;5005039;28;20172;-56
2021/12/08 07:16:36;;;;;;;14.45;6.60;;;4.70;99.90;;;;;;4987307;28;20619;-58
2021/12/08 07:19:12;;;;;;;11.90;5.13;;;4.60;99.90;;;;;;4992473;28;20064;-59
2021/12/08 07:21:43;;;;;;;8.45;5.00;;;4.70;99.90;;;;;;5000407;28;20623;-60
2021/12/08 07:24:20;;;;;;;9.17;4.40;;;4.60;99.90;;;;;;5002581;28;20089;-60
2021/12/08 07:26:49;;;;;;;10.90;5.20;;;4.60;99.90;;;;;;5017856;28;20053;-60
2021/12/08 07:29:19;;;;;;;9.13;4.53;;;4.60;99.90;;;;;;5018623;28;20069;-56
2021/12/08 07:31:52;;;;;;;9.02;4.57;;;4.60;99.90;;;;;;4987611;28;20112;-56
2021/12/08 07:34:19;;;;;;;10.65;5.43;;;4.60;99.90;;;;;;4994949;28;20116;-60
2021/12/08 07:36:51;;;;;;;10.18;5.47;;;4.70;99.90;;;;;;4976622;28;20046;-59
2021/12/08 07:39:27;;;;;;;8.25;4.82;;;4.70;99.90;;;;;;5010390;28;20049;-60
2021/12/08 07:42:00;;;;;;;8.75;4.53;;;4.70;99.90;;;;;;4976336;28;20050;-61
2021/12/08 07:44:27;;;;;;;8.10;4.70;;;4.80;99.90;;;;;;4993263;28;20042;-61
2021/12/08 07:47:12;;;;;;;11.70;4.70;;;4.80;99.90;;;;;;5025250;28;20057;-61
2021/12/08 07:49:43;;;;;;;7.28;4.28;;;4.80;99.90;;;;;;4974059;28;20525;-60
2021/12/08 07:52:17;;;;;;;8.23;4.18;;;4.80;99.90;;;;;;4991506;28;20053;-61
2021/12/08 07:54:45;;;;;;;9.90;3.85;;;4.80;99.90;;;;;;4985092;28;20117;-61
2021/12/08 07:57:17;;;;;;;8.20;3.88;;;4.80;99.90;;;;;;4973457;28;20053;-61
2021/12/08 07:59:47;;;;;;;8.15;3.53;;;4.80;99.90;;;;;;4992480;28;20042;-60
2021/12/08 08:02:14;;;;;;;11.63;3.88;;;4.80;99.90;;;;;;4973947;28;20057;-61
2021/12/08 08:04:43;;;;;;;8.82;3.92;;;4.80;99.90;;;;;;4976544;28;20046;-63
2021/12/08 08:07:11;;;;;;;8.68;3.67;;;4.80;99.90;;;;;;4996777;28;20534;-59
2021/12/08 08:09:42;;;;;;;9.35;3.03;;;4.80;99.90;;;;;;4986036;28;20068;-59
2021/12/08 08:12:13;;;;;;;7.40;3.33;;;4.80;99.90;;;;;;4980150;28;20050;-59
2021/12/08 08:14:48;;;;;;;10.93;3.75;;;4.80;99.90;;;;;;4992870;28;20092;-59
2021/12/08 08:17:17;;;;;;;8.35;3.65;;;4.80;99.90;;;;;;4976584;28;20065;-59
2021/12/08 08:19:49;;;;;;;7.97;3.38;;;4.80;99.90;;;;;;4985006;28;20263;-59
2021/12/08 08:22:27;;;;;;;7.00;3.58;;;4.80;99.90;;;;;;4994393;28;20046;-59
2021/12/08 08:24:55;;;;;;;9.27;3.78;;;4.90;99.90;;;;;;4991236;28;20498;-59
2021/12/08 08:27:23;;;;;;;6.57;3.20;;;4.90;99.90;;;;;;5004574;28;20061;-59
2021/12/08 08:29:51;;;;;;;7.18;4.07;;;5.00;99.90;;;;;;4979112;28;20046;-59
2021/12/08 08:32:27;;;;;;;10.43;3.80;;;4.90;99.90;;;;;;4983635;28;20045;-58
2021/12/08 08:35:19;;;;;;;9.55;2.88;;;5.00;99.90;;;;;;5011248;28;20216;-59
2021/12/08 08:37:47;;;;;;;7.55;3.25;;;5.00;99.90;;;;;;4982456;28;20056;-59
2021/12/08 08:40:19;;;;;;;4.97;2.60;;;5.00;99.90;;;;;;4959133;28;20145;-59
2021/12/08 08:42:47;;;;;;;11.32;3.92;;;5.10;99.90;;;;;;4991620;28;20049;-58
2021/12/08 08:45:28;;;;;;;11.18;2.88;;;5.20;99.90;;;;;;4994304;28;20124;-58
2021/12/08 08:48:08;;;;;;;9.35;3.10;;;5.30;99.90;;;;;;4995395;28;20050;-58
2021/12/08 08:50:49;;;;;;;15.43;3.55;;;5.60;99.90;;;;;;4988551;28;20042;-58
2021/12/08 08:53:18;;;;;;;8.07;3.20;;;5.80;99.90;;;;;;5022967;28;20053;-57
2021/12/08 08:55:52;;;;;;;8.38;2.70;;;5.90;99.90;;;;;;5021492;28;20058;-58
2021/12/08 08:58:21;;;;;;;6.32;2.40;;;6.00;99.90;;;;;;4996464;28;20061;-58
2021/12/08 09:00:52;;;;;;;10.52;3.60;;;6.10;99.90;;;;;;5012292;28;20073;-58
2021/12/08 09:03:23;;;;;;;12.93;2.75;;;6.10;99.90;;;;;;4979114;28;20567;-59
2021/12/08 09:06:05;;;;;;;8.98;2.70;;;5.90;99.90;;;;;;4995581;28;20052;-58
2021/12/08 09:08:34;;;;;;;10.73;2.83;;;5.90;99.90;;;;;;4995714;28;20046;-58
2021/12/08 09:11:06;;;;;;;7.47;2.70;;;5.90;99.90;;;;;;4992461;28;20065;-61
2021/12/08 09:13:38;;;;;;;15.45;3.38;;;5.70;99.90;;;;;;4963994;28;20061;-61
2021/12/08 09:16:11;;;;;;;9.32;3.50;;;5.70;99.90;;;;;;4995951;28;20497;-63
2021/12/08 09:18:54;;;;;;;8.27;2.80;;;5.70;99.90;;;;;;4988002;28;20393;-63
2021/12/08 09:21:30;;;;;;;9.98;3.17;;;5.60;99.90;;;;;;5010418;28;20394;-53
2021/12/08 09:24:09;;;;;;;13.57;3.28;;;5.60;99.90;;;;;;4980201;28;20502;-54
2021/12/08 09:26:49;;;;;;;8.32;2.97;;;5.60;99.90;;;;;;4993106;28;20624;-54
2021/12/08 09:29:26;;;;;;;12.48;3.28;;;5.60;99.90;;;;;;4993010;28;20046;-51
2021/12/08 09:31:58;;;;;;;11.75;2.95;;;5.60;99.90;;;;;;5000522;28;20050;-51
2021/12/08 09:34:31;;;;;;;14.68;3.28;;;5.50;99.90;;;;;;4999893;28;20054;-52
2021/12/08 09:37:12;;;;;;;10.40;2.97;;;5.60;99.90;;;;;;5000692;28;20053;-53
2021/12/08 09:39:46;;;;;;;10.57;2.92;;;5.50;99.90;;;;;;5013179;28;20041;-54
2021/12/08 09:42:18;;;;;;;12.15;3.22;;;5.50;99.90;;;;;;5004184;28;20042;-64
2021/12/08 09:44:47;;;;;;;;;;;5.60;99.90;;;;;;4998410;28;20404;-64
2021/12/08 09:47:14;;;;;;;16.50;3.63;;;5.70;99.90;;;;;;4999529;28;20090;-65
2021/12/08 09:49:41;;;;;;;9.90;3.00;;;5.90;99.90;;;;;;5003019;28;20654;-54
2021/12/08 09:52:10;;;;;;;8.48;3.08;;;6.00;99.90;;;;;;4992019;28;20049;-53
2021/12/08 09:54:38;;;;;;;11.18;3.13;;;6.10;99.90;;;;;;4982705;28;20050;-54
2021/12/08 09:57:10;;;;;;;13.18;2.95;;;6.20;99.90;;;;;;5004349;28;20088;-53
2021/12/08 09:59:45;;;;;;;;;;;6.20;99.90;;;;;;4985754;28;20485;-52
2021/12/08 10:02:18;;;;;;;11.23;3.13;;;6.10;99.90;;;;;;5000585;28;20262;-56
2021/12/08 10:04:45;;;;;;;12.85;3.05;;;6.60;99.90;;;;;;4972055;28;20053;-54
2021/12/08 10:07:12;;;;;;;9.05;3.10;;;6.80;99.90;;;;;;4996819;28;20050;-52
2021/12/08 10:09:40;;;;;;;10.80;3.65;;;6.90;99.90;;;;;;4983283;28;20061;-53
2021/12/08 10:12:06;;;;;;;10.75;3.40;;;6.80;99.90;;;;;;5032074;28;20046;-54
2021/12/08 10:14:33;;;;;;;9.35;3.55;;;6.80;99.90;;;;;;4997406;28;20100;-53
2021/12/08 10:16:59;;;;;;;11.02;3.03;;;6.90;99.90;;;;;;4998685;28;20101;-52
2021/12/08 10:19:25;;;;;;;10.63;3.63;;;6.90;99.90;;;;;;4989941;28;20105;-52
2021/12/08 10:21:52;;;;;;;8.48;3.15;;;6.90;99.90;;;;;;4994391;28;20054;-53
2021/12/08 10:24:24;;;;;;;8.27;3.20;;;7.00;99.90;;;;;;4976533;28;20042;-54
2021/12/08 10:26:52;;;;;;;9.48;3.70;;;7.00;99.90;;;;;;4978407;28;20054;-54
2021/12/08 10:29:27;;;;;;;11.45;3.70;;;6.90;99.90;;;;;;4981343;28;20493;-48
2021/12/08 10:31:55;;;;;;;10.18;3.15;;;6.90;99.90;;;;;;4968830;28;20045;-50
2021/12/08 10:34:25;;;;;;;12.75;3.42;;;7.00;99.90;;;;;;4973137;28;20128;-53
2021/12/08 10:37:14;;;;;;;10.48;3.38;;;7.00;99.90;;;;;;4993262;28;20484;-53
2021/12/08 10:39:46;;;;;;;10.80;3.10;;;7.10;99.90;;;;;;4992804;28;20100;-51
2021/12/08 10:42:21;;;;;;;9.88;3.00;;;7.00;99.90;;;;;;5009471;28;20421;-52
2021/12/08 10:44:56;;;;;;;10.35;3.22;;;6.90;99.90;;;;;;5009690;28;20121;-53
2021/12/08 10:47:22;;;;;;;9.45;3.35;;;6.90;99.90;;;;;;4993695;28;20050;-53
2021/12/08 10:55:18;;;;;;;10.07;2.92;;;8.00;99.90;;;;;;4985373;28;20042;-54
2021/12/08 10:57:55;;;;;;;10.52;2.80;;;8.50;99.90;;;;;;4977239;28;20064;-54
2021/12/08 11:00:50;;;;;;;7.32;2.40;;;8.70;99.90;;;;;;4993094;28;20054;-65
2021/12/08 11:03:17;;;;;;;8.10;2.55;;;8.50;99.90;;;;;;4972915;28;20058;-65
2021/12/08 11:05:44;;;;;;;12.07;2.70;;;8.40;99.90;;;;;;4988939;28;20046;-65
2021/12/08 11:08:18;;;;;;;8.80;3.03;;;8.40;99.90;;;;;;4991823;28;20057;-64
2021/12/08 11:10:48;;;;;;;6.50;2.88;;;8.00;99.90;;;;;;5008751;28;20046;-65
2021/12/08 11:13:16;;;;;;;10.43;2.85;;;7.60;99.90;;;;;;5002742;28;20050;-64
2021/12/08 11:15:46;;;;;;;9.80;3.20;;;7.40;99.90;;;;;;4983363;28;20057;-65
2021/12/08 11:18:15;;;;;;;7.90;2.60;;;7.20;99.90;;;;;;5003520;28;20044;-64
2021/12/08 11:20:48;;;;;;;10.50;3.20;;;7.10;99.90;;;;;;4991978;28;20050;-64
2021/12/08 11:23:27;;;;;;;9.52;3.20;;;6.90;99.90;;;;;;5008224;28;20501;-64
2021/12/08 11:25:54;;;;;;;8.60;2.65;;;6.90;99.90;;;;;;5013045;28;20495;-64
2021/12/08 11:28:24;;;;;;;10.77;3.05;;;7.10;99.90;;;;;;5016521;28;20045;-64
2021/12/08 11:30:51;;;;;;;10.60;3.50;;;7.00;99.90;;;;;;4967964;28;20085;-64
2021/12/08 11:33:22;;;;;;;9.43;3.65;;;6.90;99.90;;;;;;4970494;28;20572;-64
2021/12/08 11:36:09;;;;;;;9.90;3.40;;;6.80;99.90;;;;;;4984569;28;20042;-64
2021/12/08 11:38:36;;;;;;;9.32;3.53;;;6.70;99.90;;;;;;5000973;28;20043;-65
2021/12/08 11:41:10;;;;;;;12.25;4.10;;;6.70;99.90;;;;;;5009396;28;20056;-49
2021/12/08 11:43:36;;;;;;;11.65;3.72;;;6.70;99.90;;;;;;5009150;28;20050;-64
2021/12/08 11:46:16;;;;;;;7.68;3.60;;;6.60;99.90;;;;;;4975545;28;21359;-64
2021/12/08 11:49:03;;;;;;;8.18;3.22;;;6.60;99.90;;;;;;4989034;28;20057;-47
2021/12/08 11:51:32;;;;;;;9.45;3.30;;;6.50;99.90;;;;;;4991684;28;20092;-50
2021/12/08 11:53:59;;;;;;;6.88;3.70;;;6.50;99.90;;;;;;4982348;28;20584;-47
2021/12/08 11:56:37;;;;;;;8.20;4.20;;;6.40;99.90;;;;;;5010208;28;20457;-64
2021/12/08 11:59:09;;;;;;;12.23;3.60;;;6.40;99.90;;;;;;4983655;28;20050;-64
2021/12/08 12:01:37;;;;;;;9.82;3.53;;;6.40;99.90;;;;;;4973293;28;20313;-64
2021/12/08 12:04:05;;;;;;;13.30;3.38;;;6.40;99.90;;;;;;4965889;28;20037;-64
2021/12/08 12:06:34;;;;;;;12.02;3.22;;;6.40;99.90;;;;;;5001855;28;20529;-64
2021/12/08 12:09:02;;;;;;;10.20;3.38;;;6.30;99.90;;;;;;4982700;28;20053;-64
2021/12/08 12:11:30;;;;;;;9.27;3.30;;;6.30;99.90;;;;;;5001387;28;20061;-64
2021/12/08 12:13:58;;;;;;;10.13;2.88;;;6.30;99.90;;;;;;5004276;28;20057;-64
2021/12/08 12:16:25;;;;;;;7.30;3.30;;;6.20;99.90;;;;;;4992767;28;20492;-64
2021/12/08 12:18:56;;;;;;;10.00;3.47;;;6.30;99.90;;;;;;5010017;28;20053;-64
2021/12/08 12:21:30;;;;;;;9.80;2.92;;;6.20;99.90;;;;;;5009896;28;20120;-64
2021/12/08 12:24:23;;;;;;;12.45;3.88;;;6.20;99.90;;;;;;5008488;28;20042;-64
2021/12/08 12:26:54;;;;;;;;;;;6.20;99.90;;;;;;4984118;28;20084;-64
2021/12/08 12:29:56;;;;;;;9.43;2.70;;;6.10;99.90;;;;;;5006604;28;19921;-64
2021/12/08 12:32:37;;;;;;;10.80;3.38;;;6.10;99.90;;;;;;4982070;28;20065;-64
2021/12/08 12:35:15;;;;;;;10.90;3.65;;;6.10;99.90;;;;;;4986131;28;20459;-64
2021/12/08 12:37:41;;;;;;;7.25;3.20;;;6.10;99.90;;;;;;4978606;28;20077;-64
2021/12/08 12:40:15;;;;;;;8.55;2.83;;;6.10;99.90;;;;;;4990717;28;20405;-64
2021/12/08 12:42:54;;;;;;;7.97;3.22;;;6.20;99.90;;;;;;4980908;28;20073;-64
2021/12/08 12:45:22;;;;;;;8.68;2.95;;;6.10;99.90;;;;;;5008682;28;20132;-64
2021/12/08 12:48:14;;;;;;;11.93;3.05;;;6.20;99.90;;;;;;5009772;28;20497;-64
2021/12/08 12:50:57;;;;;;;9.65;3.83;;;6.20;99.90;;;;;;4983841;28;20484;-64
2021/12/08 12:53:45;;;;;;;7.93;3.00;;;6.10;99.90;;;;;;5010007;28;20045;-47
2021/12/08 12:56:34;;;;;;;9.35;2.95;;;6.10;99.90;;;;;;4964204;28;20050;-49
2021/12/08 12:59:20;;;;;;;8.10;3.03;;;6.20;99.90;;;;;;4963945;28;20046;-50
2021/12/08 13:02:02;;;;;;;12.27;3.72;;;6.20;99.90;;;;;;5003493;28;20100;-52
2021/12/08 13:04:29;;;;;;;7.35;2.90;;;6.20;99.90;;;;;;5001157;28;20042;-51
2021/12/08 13:07:05;;;;;;;9.10;2.90;;;6.20;99.90;;;;;;5006586;28;20042;-53
2021/12/08 13:09:48;;;;;;;9.55;2.67;;;6.20;99.90;;;;;;4973172;28;20054;-52
2021/12/08 13:12:27;;;;;;;6.85;2.58;;;6.30;99.90;;;;;;4992059;28;20172;-48
2021/12/08 13:15:26;;;;;;;6.63;2.78;;;6.30;99.90;;;;;;4991635;28;20065;-51
2021/12/08 13:18:00;;;;;;;11.95;3.17;;;6.30;99.90;;;;;;4983903;28;20100;-50
2021/12/08 13:20:28;;;;;;;9.93;3.20;;;6.20;99.90;;;;;;5004305;28;20138;-48
2021/12/08 13:23:02;;;;;;;8.35;2.97;;;6.20;99.90;;;;;;5000651;28;20049;-64
2021/12/08 13:26:24;;;;;;;8.30;3.00;;;6.20;99.90;;;;;;4992126;28;20046;-64
2021/12/08 13:28:27;;;;;;;10.98;3.78;;;6.20;99.90;;;;;;4992690;28;20072;-51
2021/12/08 13:31:18;;;;;;;11.48;3.72;;;6.20;99.90;;;;;;5009953;28;20052;-64
2021/12/08 13:33:51;;;;;;;9.85;3.15;;;6.20;99.90;;;;;;4976988;28;20094;-64
2021/12/08 13:36:20;;;;;;;7.13;2.97;;;6.20;99.90;;;;;;5005001;28;20085;-48
2021/12/08 13:38:58;;;;;;;10.38;3.35;;;6.30;99.90;;;;;;4993417;28;20057;-62
2021/12/08 13:41:32;;;;;;;7.18;2.70;;;6.30;99.90;;;;;;4995988;28;20056;-64
2021/12/08 13:44:02;;;;;;;9.30;3.60;;;6.30;99.90;;;;;;5003682;28;20054;-63
2021/12/08 13:46:37;;;;;;;8.18;3.50;;;6.30;99.90;;;;;;4980454;28;20043;-63
2021/12/08 13:49:28;;;;;;;7.45;2.75;;;6.60;99.90;;;;;;5002822;28;20501;-63
2021/12/08 13:52:06;;;;;;;9.70;3.30;;;6.60;99.90;;;;;;5012769;28;20053;-63
2021/12/08 13:54:38;;;;;;;7.05;2.60;;;6.90;99.90;;;;;;4986169;28;20042;-63
2021/12/08 13:57:24;;;;;;;10.90;3.00;;;6.80;99.90;;;;;;4975567;28;20050;-63
2021/12/08 13:59:59;;;;;;;6.18;2.95;;;6.70;99.90;;;;;;4992750;28;20054;-63
2021/12/08 14:02:33;;;;;;;9.40;3.50;;;6.50;99.90;;;;;;4959138;28;20053;-63
2021/12/08 14:05:17;;;;;;;11.45;2.72;;;6.40;99.90;;;;;;4997206;28;20045;-63
2021/12/08 14:07:56;;;;;;;8.85;2.97;;;6.30;99.90;;;;;;4980004;28;20102;-63
2021/12/08 14:10:29;;;;;;;5.75;2.53;;;6.20;99.90;;;;;;4994902;28;20507;-62